Time;durP1;ratioP1;P1;durP2;ratioP2;P2;SDS_P1;SDS_P2;PMS_P1;PMS_P2;Temp;Humidity;BMP_temperature;BMP_pressure;BME280_temperature;BME280_humidity;BME280_pressure;Samples;Min_cycle;Max_cycle;Signal;HPM_P1;HPM_P2
2022/09/23 00:02:19;;;;;;;17.98;12.15;;;4.70;1.00;;;;;;6277951;22;20098;-80
2022/09/23 00:05:07;;;;;;;17.17;12.88;;;4.70;1.00;;;;;;6280815;22;20038;-80
2022/09/23 00:07:55;;;;;;;19.40;13.40;;;4.80;99.90;;;;;;6261630;22;20395;-80
2022/09/23 00:10:42;;;;;;;15.70;12.82;;;4.70;56.60;;;;;;6257507;22;20034;-80
2022/09/23 00:13:32;;;;;;;19.88;13.63;;;4.70;98.10;;;;;;6277108;22;20299;-80
2022/09/23 00:16:27;;;;;;;20.35;13.02;;;4.70;99.90;;;;;;6279184;22;20024;-80
2022/09/23 00:19:14;;;;;;;22.02;13.50;;;4.70;99.90;;;;;;6275795;22;20322;-80
2022/09/23 00:22:01;;;;;;;22.02;14.20;;;4.70;1.00;;;;;;6276072;22;20023;-80
2022/09/23 00:24:48;;;;;;;18.38;14.02;;;4.80;1.00;;;;;;6257821;22;20038;-79
2022/09/23 00:27:37;;;;;;;19.90;14.88;;;4.80;1.00;;;;;;6278166;22;20321;-81
2022/09/23 00:30:24;;;;;;;20.00;14.25;;;4.70;1.00;;;;;;6279264;22;20026;-81
2022/09/23 00:33:14;;;;;;;20.65;13.65;;;4.70;1.00;;;;;;6275042;22;20047;-81
2022/09/23 00:36:06;;;;;;;19.17;13.45;;;4.70;99.90;;;;;;6278674;22;20019;-81
2022/09/23 00:38:56;;;;;;;13.05;9.60;;;4.70;99.90;;;;;;6278540;22;20030;-82
2022/09/23 00:41:46;;;;;;;18.42;12.75;;;4.70;99.90;;;;;;6276122;22;20043;-81
2022/09/23 00:44:45;;;;;;;17.63;12.52;;;4.70;99.90;;;;;;6258084;22;20322;-80
2022/09/23 00:47:55;;;;;;;17.48;13.07;;;4.70;5.30;;;;;;6276131;22;20024;-79
2022/09/23 00:50:53;;;;;;;18.42;11.98;;;4.70;1.00;;;;;;6277893;22;20034;-80
2022/09/23 00:53:41;;;;;;;17.40;12.15;;;4.70;99.90;;;;;;6257700;22;20045;-79
2022/09/23 00:56:33;;;;;;;15.98;12.57;;;4.80;99.90;;;;;;6277101;22;20034;-80
2022/09/23 00:59:25;;;;;;;14.65;11.45;;;4.90;1.00;;;;;;6258602;22;20027;-80
2022/09/23 01:02:13;;;;;;;19.55;12.23;;;4.90;99.90;;;;;;6279450;22;20034;-79
2022/09/23 01:05:02;;;;;;;16.83;11.60;;;4.90;99.90;;;;;;6278385;22;20023;-80
2022/09/23 01:07:49;;;;;;;16.27;11.95;;;5.00;99.90;;;;;;6275793;22;20372;-80
2022/09/23 01:10:48;;;;;;;12.88;11.10;;;5.20;99.90;;;;;;6279874;22;20023;-80
2022/09/23 01:13:40;;;;;;;15.43;11.25;;;5.20;99.90;;;;;;6278022;22;20037;-81
2022/09/23 01:16:39;;;;;;;14.52;10.80;;;5.30;99.90;;;;;;6279146;22;20019;-81
2022/09/23 01:20:04;;;;;;;12.93;9.88;;;5.40;99.90;;;;;;6257121;22;20341;-81
2022/09/23 01:23:13;;;;;;;19.65;10.65;;;5.40;99.90;;;;;;6275804;22;20423;-82
2022/09/23 01:26:21;;;;;;;11.73;9.82;;;5.30;99.90;;;;;;6280539;22;20028;-81
2022/09/23 01:29:28;;;;;;;10.73;9.30;;;5.10;1.00;;;;;;6278136;22;20024;-81
2022/09/23 01:32:24;;;;;;;12.52;8.93;;;5.00;99.90;;;;;;6279620;22;20023;-80
2022/09/23 01:35:29;;;;;;;10.25;8.82;;;4.80;1.00;;;;;;6281068;22;20024;-81
2022/09/23 01:38:31;;;;;;;12.18;9.77;;;4.70;1.00;;;;;;6280873;22;20034;-82
2022/09/23 01:41:30;;;;;;;9.53;7.33;;;4.70;1.00;;;;;;6277411;22;20121;-82
2022/09/23 01:44:23;;;;;;;11.02;9.20;;;4.60;99.90;;;;;;6280263;22;20034;-79
2022/09/23 01:47:17;;;;;;;;;;;4.60;99.90;;;;;;6279740;22;20034;-80
2022/09/23 01:53:38;;;;;;;10.57;8.80;;;4.50;99.90;;;;;;6279564;22;20039;-81
2022/09/23 01:56:35;;;;;;;16.40;9.48;;;4.50;99.90;;;;;;6258210;22;20055;-80
2022/09/23 01:59:57;;;;;;;13.60;9.88;;;4.60;99.90;;;;;;6277809;22;20046;-81
2022/09/23 02:03:03;;;;;;;14.43;10.60;;;4.60;99.90;;;;;;6277656;22;20023;-82
2022/09/23 02:06:16;;;;;;;16.50;10.30;;;4.70;99.90;;;;;;6279842;22;20068;-79
2022/09/23 02:09:23;;;;;;;12.45;9.70;;;4.70;1.00;;;;;;6279218;22;20027;-80
2022/09/23 02:12:16;;;;;;;12.48;9.48;;;4.50;1.00;;;;;;6276139;22;20438;-80
2022/09/23 02:15:12;;;;;;;14.00;9.95;;;4.30;1.00;;;;;;6277835;22;20113;-80
2022/09/23 02:18:16;;;;;;;15.52;9.27;;;4.30;1.00;;;;;;6277316;22;20442;-80
2022/09/23 02:21:07;;;;;;;13.15;9.73;;;4.20;1.00;;;;;;6277721;22;20043;-80
2022/09/23 02:24:08;;;;;;;15.40;9.52;;;4.10;1.00;;;;;;6277188;22;20113;-81
2022/09/23 02:27:24;;;;;;;11.63;9.65;;;4.10;99.90;;;;;;6257654;22;20094;-82
2022/09/23 02:30:13;;;;;;;14.60;10.02;;;4.00;99.90;;;;;;6278813;22;20032;-79
2022/09/23 02:33:21;;;;;;;14.43;10.15;;;4.00;99.90;;;;;;6278731;22;20435;-82
2022/09/23 02:36:20;;;;;;;14.40;10.45;;;4.00;99.90;;;;;;6279300;22;20567;-81
2022/09/23 02:39:11;;;;;;;14.32;10.00;;;4.00;99.90;;;;;;6278222;22;20030;-81
2022/09/23 02:42:08;;;;;;;11.75;9.63;;;4.10;40.80;;;;;;6278002;22;20023;-79
2022/09/23 02:44:57;;;;;;;13.77;9.75;;;3.90;99.90;;;;;;6277469;22;20359;-81
2022/09/23 02:47:51;;;;;;;14.38;10.32;;;3.90;1.00;;;;;;6277725;22;20027;-81
2022/09/23 02:50:42;;;;;;;15.50;10.30;;;3.80;1.00;;;;;;6278933;22;20042;-82
2022/09/23 02:53:34;;;;;;;14.43;10.32;;;3.80;1.00;;;;;;6275395;22;20023;-81
2022/09/23 02:56:23;;;;;;;11.95;10.02;;;3.80;17.60;;;;;;6277113;22;20399;-81
2022/09/23 02:59:11;;;;;;;13.25;9.95;;;3.70;99.90;;;;;;6277924;22;20034;-79
2022/09/23 03:02:13;;;;;;;15.55;10.20;;;3.80;1.00;;;;;;6278973;22;20031;-80
2022/09/23 03:05:22;;;;;;;13.55;9.50;;;3.80;99.90;;;;;;6276084;22;20319;-82
2022/09/23 03:08:41;;;;;;;11.95;9.68;;;4.00;99.90;;;;;;6276950;22;20034;-81
2022/09/23 03:11:36;;;;;;;14.43;9.38;;;4.10;99.90;;;;;;6256542;22;20096;-80
2022/09/23 03:14:52;;;;;;;11.10;9.50;;;4.00;1.00;;;;;;6277238;22;20031;-80
2022/09/23 03:17:54;;;;;;;12.60;8.68;;;4.00;6.80;;;;;;6276595;22;20034;-82
2022/09/23 03:20:49;;;;;;;12.35;8.55;;;3.90;99.90;;;;;;6278644;22;20030;-82
2022/09/23 03:23:39;;;;;;;11.00;8.45;;;3.80;99.90;;;;;;6276132;22;20028;-81
2022/09/23 03:26:39;;;;;;;12.18;8.68;;;3.60;1.00;;;;;;6274998;22;20032;-80
2022/09/23 03:29:27;;;;;;;9.75;7.75;;;3.50;1.00;;;;;;6276871;22;20028;-81
2022/09/23 03:32:18;;;;;;;11.82;8.93;;;3.60;99.90;;;;;;6276216;22;20024;-81
2022/09/23 03:35:05;;;;;;;11.10;9.10;;;3.60;1.00;;;;;;6276752;22;20024;-81
2022/09/23 03:37:56;;;;;;;11.63;9.13;;;3.60;1.00;;;;;;6275880;22;20288;-79
2022/09/23 03:40:46;;;;;;;14.30;9.98;;;3.60;99.90;;;;;;6279525;22;20367;-80
2022/09/23 03:43:34;;;;;;;13.57;9.35;;;3.40;99.90;;;;;;6279271;22;20438;-80
2022/09/23 03:46:27;;;;;;;15.05;10.95;;;3.30;99.90;;;;;;6276158;22;20027;-80
2022/09/23 03:49:21;;;;;;;13.68;9.82;;;3.30;1.00;;;;;;6275548;22;20099;-81
2022/09/23 03:52:09;;;;;;;17.88;10.32;;;3.30;99.90;;;;;;6278155;22;20023;-80
2022/09/23 03:54:57;;;;;;;12.50;9.63;;;3.20;99.90;;;;;;6253981;22;20051;-79
2022/09/23 03:57:44;;;;;;;13.52;9.57;;;3.30;1.00;;;;;;6276384;22;20020;-81
2022/09/23 04:00:34;;;;;;;15.55;10.40;;;3.20;1.00;;;;;;6275476;22;20380;-80
2022/09/23 04:03:22;;;;;;;14.77;10.52;;;3.20;99.90;;;;;;6278500;22;20027;-81
2022/09/23 04:06:09;;;;;;;18.60;10.85;;;3.20;99.90;;;;;;6278155;22;20113;-80
2022/09/23 04:08:57;;;;;;;12.73;10.38;;;3.10;99.90;;;;;;6275976;22;20024;-81
2022/09/23 04:11:46;;;;;;;17.33;11.70;;;3.10;99.90;;;;;;6277116;22;20055;-80
2022/09/23 04:14:34;;;;;;;12.13;10.18;;;3.10;1.00;;;;;;6277102;22;20028;-80
2022/09/23 04:17:21;;;;;;;16.75;10.98;;;3.10;1.00;;;;;;6254191;22;20020;-81
2022/09/23 04:20:09;;;;;;;15.95;10.88;;;3.20;1.00;;;;;;6255931;22;20038;-80
2022/09/23 04:22:56;;;;;;;15.50;11.60;;;3.30;98.60;;;;;;6280948;22;20038;-80
2022/09/23 04:25:50;;;;;;;16.98;11.05;;;3.50;99.90;;;;;;6277996;22;20086;-80
2022/09/23 04:28:38;;;;;;;16.00;10.82;;;3.50;99.90;;;;;;6277570;22;20019;-81
2022/09/23 04:31:27;;;;;;;14.93;10.95;;;3.40;99.90;;;;;;6278488;22;20027;-82
2022/09/23 04:34:16;;;;;;;16.80;11.48;;;3.40;99.90;;;;;;6279768;22;20073;-80
2022/09/23 04:37:03;;;;;;;17.17;11.85;;;3.40;94.00;;;;;;6285109;22;20051;-79
2022/09/23 04:39:53;;;;;;;16.13;10.98;;;3.30;1.00;;;;;;6271895;22;20026;-79
2022/09/23 04:42:40;;;;;;;16.20;12.18;;;3.20;1.00;;;;;;6277682;22;20023;-80
2022/09/23 04:45:28;;;;;;;20.20;12.55;;;3.20;1.00;;;;;;6275058;22;20038;-79
2022/09/23 04:48:16;;;;;;;21.40;13.57;;;3.10;1.00;;;;;;6277874;22;20020;-82
2022/09/23 04:51:11;;;;;;;20.58;14.57;;;3.10;1.00;;;;;;6276100;22;20028;-79
2022/09/23 04:53:58;;;;;;;21.15;15.48;;;3.10;44.30;;;;;;6277230;22;20023;-81
2022/09/23 04:56:50;;;;;;;28.98;17.92;;;3.20;99.90;;;;;;6274318;22;20031;-81
2022/09/23 04:59:43;;;;;;;26.45;18.00;;;3.40;99.90;;;;;;6253428;22;20153;-80
2022/09/23 05:02:30;;;;;;;29.80;19.27;;;3.70;99.90;;;;;;6275912;22;20081;-80
2022/09/23 05:09:35;;;;;;;26.52;18.00;;;3.90;99.90;;;;;;6190876;22;20110;-80
2022/09/23 05:12:22;;;;;;;31.45;19.88;;;3.90;99.90;;;;;;6277689;22;20507;-80
2022/09/23 05:15:09;;;;;;;27.70;19.17;;;4.00;99.90;;;;;;6277745;22;20670;-81
2022/09/23 05:17:58;;;;;;;26.02;18.77;;;4.00;99.90;;;;;;6277877;22;20426;-80
2022/09/23 05:20:52;;;;;;;28.98;19.13;;;3.90;99.90;;;;;;6277549;22;20051;-82
2022/09/23 05:23:40;;;;;;;27.88;19.30;;;3.90;99.90;;;;;;6275682;22;20030;-80
2022/09/23 05:26:30;;;;;;;26.23;18.20;;;3.80;99.90;;;;;;6275957;22;20033;-80
2022/09/23 05:29:17;;;;;;;27.35;18.05;;;3.80;99.90;;;;;;6277903;22;20030;-80
2022/09/23 05:32:04;;;;;;;25.10;18.42;;;4.00;99.90;;;;;;6278401;22;20028;-80
2022/09/23 05:34:54;;;;;;;27.35;19.27;;;4.30;99.90;;;;;;6275691;22;20024;-80
2022/09/23 05:37:41;;;;;;;21.50;16.35;;;4.60;99.90;;;;;;6277513;22;20020;-79
2022/09/23 05:40:28;;;;;;;21.17;16.40;;;4.80;99.90;;;;;;6277670;22;20027;-80
2022/09/23 05:43:15;;;;;;;21.45;15.60;;;4.90;1.00;;;;;;6282010;22;20053;-79
2022/09/23 05:46:17;;;;;;;26.00;14.63;;;5.00;99.90;;;;;;6277284;22;20738;-80
2022/09/23 05:49:04;;;;;;;20.75;14.10;;;5.10;99.90;;;;;;6275963;22;20030;-81
2022/09/23 05:51:53;;;;;;;19.58;12.93;;;5.10;1.00;;;;;;6276160;22;20095;-80
2022/09/23 05:54:40;;;;;;;15.88;12.27;;;5.10;99.90;;;;;;6277638;22;20382;-79
2022/09/23 05:57:30;;;;;;;17.52;12.65;;;5.20;1.00;;;;;;6275534;22;20086;-79
2022/09/23 06:00:22;;;;;;;14.13;11.85;;;5.10;99.90;;;;;;6254224;22;20059;-78
2022/09/23 06:03:13;;;;;;;17.52;12.63;;;5.20;99.90;;;;;;6255991;22;20319;-79
2022/09/23 06:06:00;;;;;;;15.15;12.27;;;5.20;1.00;;;;;;6276504;22;20028;-81
2022/09/23 06:08:50;;;;;;;18.60;13.30;;;5.30;99.90;;;;;;6277378;22;20024;-80
2022/09/23 06:11:40;;;;;;;16.60;13.15;;;5.30;99.90;;;;;;6277700;22;20023;-80
2022/09/23 06:14:27;;;;;;;20.52;13.95;;;5.40;99.90;;;;;;6275188;22;20122;-80
2022/09/23 06:17:14;;;;;;;14.63;12.02;;;5.50;38.70;;;;;;6278633;22;20034;-80
2022/09/23 06:20:01;;;;;;;17.38;12.90;;;5.60;99.90;;;;;;6277513;22;20114;-80
2022/09/23 06:22:51;;;;;;;16.23;12.68;;;5.70;99.90;;;;;;6276303;22;20107;-82
2022/09/23 06:25:41;;;;;;;15.48;11.65;;;5.80;1.00;;;;;;6278200;22;20038;-81
2022/09/23 06:28:31;;;;;;;16.63;10.63;;;5.90;99.90;;;;;;6279107;22;20023;-82
2022/09/23 06:31:18;;;;;;;17.80;10.23;;;6.10;99.90;;;;;;6276024;22;20327;-79
2022/09/23 06:34:08;;;;;;;15.75;9.07;;;6.20;1.00;;;;;;6256250;22;20099;-80
2022/09/23 06:36:59;;;;;;;14.43;9.40;;;6.30;1.00;;;;;;6277254;22;20034;-79
2022/09/23 06:40:03;;;;;;;16.17;8.77;;;6.50;1.00;;;;;;6276996;22;20023;-79
2022/09/23 06:43:00;;;;;;;13.05;8.25;;;6.70;99.90;;;;;;6277256;22;20034;-80
2022/09/23 06:45:54;;;;;;;13.38;7.90;;;6.80;99.90;;;;;;6277022;22;20027;-79
2022/09/23 06:48:43;;;;;;;11.05;7.45;;;7.00;99.90;;;;;;6277061;22;20455;-79
2022/09/23 06:51:32;;;;;;;11.40;6.78;;;7.20;99.90;;;;;;6277593;22;20410;-79
2022/09/23 06:54:19;;;;;;;11.43;6.30;;;7.40;84.00;;;;;;6254509;22;20047;-80
2022/09/23 06:57:06;;;;;;;8.18;5.47;;;7.70;1.00;;;;;;6276613;22;20038;-79
2022/09/23 06:59:54;;;;;;;10.63;5.57;;;7.90;1.00;;;;;;6280690;22;20107;-80
2022/09/23 07:02:41;;;;;;;7.68;5.25;;;8.10;1.00;;;;;;6278290;22;20481;-79
2022/09/23 07:05:30;;;;;;;7.25;4.80;;;8.30;1.00;;;;;;6277242;22;20054;-80
2022/09/23 07:08:17;;;;;;;11.98;4.90;;;8.60;99.90;;;;;;6278895;22;20119;-80
2022/09/23 07:11:06;;;;;;;8.65;4.63;;;8.80;99.90;;;;;;6279413;22;20019;-80
2022/09/23 07:13:55;;;;;;;7.45;5.45;;;9.10;99.90;;;;;;6278000;22;20095;-81
2022/09/23 07:16:48;;;;;;;8.48;4.78;;;9.20;99.90;;;;;;6255838;22;20111;-82
2022/09/23 07:19:35;;;;;;;8.85;4.97;;;9.40;99.90;;;;;;6276176;22;20459;-81
2022/09/23 07:22:23;;;;;;;6.70;4.63;;;9.80;99.90;;;;;;6278892;22;20034;-82
2022/09/23 07:25:11;;;;;;;10.38;4.78;;;10.10;99.90;;;;;;6254609;22;20347;-82
2022/09/23 07:27:58;;;;;;;7.05;3.83;;;10.40;99.90;;;;;;6278546;22;20423;-81
2022/09/23 07:30:46;;;;;;;4.75;4.03;;;10.60;99.90;;;;;;6254760;22;20023;-80
2022/09/23 07:33:48;;;;;;;10.48;3.83;;;10.70;99.90;;;;;;6276003;22;20538;-80
2022/09/23 07:36:39;;;;;;;7.15;3.35;;;10.90;99.90;;;;;;6277238;22;20023;-80
2022/09/23 07:39:27;;;;;;;5.03;4.13;;;11.10;99.90;;;;;;6275616;22;20027;-80
2022/09/23 07:42:14;;;;;;;5.70;3.30;;;11.50;99.90;;;;;;6277286;22;20340;-80
2022/09/23 07:45:01;;;;;;;9.18;3.05;;;11.70;99.90;;;;;;6279592;22;20102;-79
2022/09/23 07:47:48;;;;;;;5.93;3.67;;;11.80;99.90;;;;;;6275668;22;20039;-79
2022/09/23 07:50:38;;;;;;;9.27;4.13;;;11.90;99.90;;;;;;6275964;22;20032;-80
2022/09/23 07:53:26;;;;;;;4.18;3.30;;;12.00;99.90;;;;;;6276229;22;20034;-81
2022/09/23 07:56:13;;;;;;;4.70;3.35;;;12.00;99.90;;;;;;6275509;22;20273;-81
2022/09/23 07:59:03;;;;;;;3.97;3.38;;;12.10;99.90;;;;;;6275448;22;20506;-81
2022/09/23 08:01:52;;;;;;;7.93;3.78;;;12.10;99.90;;;;;;6275941;22;20032;-81
2022/09/23 08:04:45;;;;;;;4.50;3.47;;;12.10;99.90;;;;;;6279215;22;20170;-81
2022/09/23 08:07:33;;;;;;;6.35;3.55;;;12.40;99.90;;;;;;6276811;22;20365;-80
2022/09/23 08:10:25;;;;;;;6.63;3.45;;;12.60;99.70;;;;;;6256237;22;20090;-81
2022/09/23 08:13:12;;;;;;;4.93;2.75;;;12.80;97.10;;;;;;6276137;22;20020;-80
2022/09/23 08:15:59;;;;;;;4.20;2.95;;;13.00;90.70;;;;;;6276515;22;20034;-79
2022/09/23 08:18:49;;;;;;;4.30;3.17;;;13.40;88.80;;;;;;6279532;22;20028;-80
2022/09/23 08:21:42;;;;;;;5.10;3.17;;;13.80;72.70;;;;;;6279169;22;20098;-81
2022/09/23 08:24:31;;;;;;;4.90;3.65;;;14.00;56.30;;;;;;6276472;22;20052;-80
2022/09/23 08:27:18;;;;;;;6.03;3.22;;;14.00;50.10;;;;;;6278065;22;20340;-81
2022/09/23 08:30:08;;;;;;;5.45;3.20;;;14.10;45.60;;;;;;6275763;22;20106;-80
2022/09/23 08:32:55;;;;;;;6.80;3.10;;;14.10;34.40;;;;;;6277692;22;20047;-81
2022/09/23 08:35:43;;;;;;;6.80;3.00;;;14.20;35.10;;;;;;6277225;22;20102;-81
2022/09/23 08:38:30;;;;;;;5.88;3.33;;;14.20;36.50;;;;;;6276584;22;20035;-80
2022/09/23 08:41:38;;;;;;;5.88;2.85;;;14.40;27.00;;;;;;6276624;22;20373;-80
2022/09/23 08:44:44;;;;;;;3.75;3.03;;;14.40;22.80;;;;;;6252957;22;20047;-81
2022/09/23 08:47:39;;;;;;;4.28;2.88;;;14.40;26.00;;;;;;6278664;22;20103;-81
2022/09/23 08:50:36;;;;;;;3.70;2.70;;;14.70;23.90;;;;;;6276167;22;20101;-81
2022/09/23 08:53:35;;;;;;;3.58;2.63;;;15.10;26.20;;;;;;6277327;22;20019;-80
2022/09/23 08:56:22;;;;;;;4.50;2.70;;;15.30;13.50;;;;;;6276340;22;20024;-81
2022/09/23 08:59:40;;;;;;;3.03;2.65;;;15.30;10.80;;;;;;6275785;22;20090;-81
2022/09/23 09:02:35;;;;;;;7.75;3.08;;;15.20;7.00;;;;;;6275756;22;20027;-80
2022/09/23 09:05:26;;;;;;;5.40;2.55;;;15.00;8.20;;;;;;6276259;22;20027;-80
2022/09/23 09:08:14;;;;;;;5.63;3.03;;;15.20;12.30;;;;;;6276185;22;20034;-79
2022/09/23 09:11:02;;;;;;;3.78;2.63;;;15.60;13.00;;;;;;6275458;22;20030;-81
2022/09/23 09:14:14;;;;;;;7.72;2.83;;;15.90;10.80;;;;;;6277596;22;20019;-81
2022/09/23 09:17:27;;;;;;;4.15;2.33;;;16.20;2.90;;;;;;6276009;22;20205;-80
2022/09/23 09:20:33;;;;;;;6.45;3.20;;;16.60;1.00;;;;;;6276168;22;20024;-80
2022/09/23 09:23:26;;;;;;;2.63;2.10;;;16.70;1.00;;;;;;6255460;22;20066;-81
2022/09/23 09:26:39;;;;;;;3.28;2.17;;;17.90;1.00;;;;;;6285182;22;20094;-81
2022/09/23 09:29:27;;;;;;;;;;;18.50;1.00;;;;;;6278404;22;20079;-81
2022/09/23 09:32:47;;;;;;;4.43;2.20;;;19.30;1.00;;;;;;6276167;22;19926;-81
2022/09/23 09:36:02;;;;;;;4.05;1.80;;;20.40;1.00;;;;;;6280520;22;20055;-82
2022/09/23 09:38:50;;;;;;;7.85;2.25;;;21.00;1.00;;;;;;6274885;22;20039;-81
2022/09/23 09:41:43;;;;;;;3.63;2.28;;;20.70;1.00;;;;;;6254596;22;20032;-81
2022/09/23 09:44:46;;;;;;;2.35;2.05;;;20.10;1.00;;;;;;6274739;22;20105;-82
2022/09/23 09:48:02;;;;;;;4.25;2.50;;;19.90;1.00;;;;;;6278823;22;20078;-82
2022/09/23 09:50:51;;;;;;;3.42;1.90;;;20.50;1.00;;;;;;6276474;22;20094;-81
2022/09/23 09:53:38;;;;;;;4.88;2.40;;;20.40;1.00;;;;;;6276780;22;20318;-82
2022/09/23 09:56:36;;;;;;;4.43;2.28;;;20.50;1.00;;;;;;6277109;22;20051;-80
2022/09/23 09:59:28;;;;;;;5.80;1.58;;;20.60;1.00;;;;;;6278008;22;20033;-81
2022/09/23 10:02:29;;;;;;;5.07;2.00;;;21.40;1.00;;;;;;6278768;22;20447;-82
2022/09/23 10:05:44;;;;;;;3.60;2.40;;;21.90;1.00;;;;;;6258351;22;20106;-80
2022/09/23 10:08:36;;;;;;;3.47;2.42;;;21.70;1.00;;;;;;6279598;22;20103;-80
2022/09/23 10:11:25;;;;;;;4.30;2.30;;;21.90;1.00;;;;;;6277030;22;20050;-81
2022/09/23 10:14:22;;;;;;;3.92;1.95;;;22.90;1.00;;;;;;6280156;22;20051;-79
2022/09/23 10:17:32;;;;;;;4.32;2.17;;;23.60;1.00;;;;;;6278510;22;20016;-82
2022/09/23 10:20:19;;;;;;;4.07;1.95;;;23.80;1.00;;;;;;6280206;22;20099;-80
2022/09/23 10:23:13;;;;;;;3.65;2.03;;;23.80;1.00;;;;;;6277317;22;20299;-82
2022/09/23 10:26:04;;;;;;;3.00;2.03;;;24.20;1.00;;;;;;6278347;22;20040;-80
2022/09/23 10:28:54;;;;;;;2.65;1.80;;;24.90;1.00;;;;;;6277728;22;20027;-82
2022/09/23 10:31:43;;;;;;;3.40;1.80;;;25.60;1.00;;;;;;6276059;22;20081;-80
2022/09/23 10:34:33;;;;;;;5.18;1.90;;;26.10;1.00;;;;;;6279815;22;20024;-81
2022/09/23 10:37:25;;;;;;;4.45;2.28;;;25.00;1.00;;;;;;6280068;22;20034;-80
2022/09/23 10:47:33;;;;;;;4.30;2.08;;;23.20;1.00;;;;;;6278487;22;20020;-82
2022/09/23 10:50:47;;;;;;;3.10;1.85;;;23.30;1.00;;;;;;6279905;22;20031;-82
2022/09/23 10:53:56;;;;;;;4.57;2.30;;;22.90;1.00;;;;;;6277269;22;20031;-81
2022/09/23 10:56:53;;;;;;;3.05;2.22;;;23.10;1.00;;;;;;6276552;22;20422;-81
2022/09/23 11:00:24;;;;;;;4.38;2.17;;;23.20;1.00;;;;;;6279970;22;20321;-80
2022/09/23 11:03:26;;;;;;;3.67;2.03;;;22.30;1.00;;;;;;6277494;22;20030;-81
2022/09/23 11:06:25;;;;;;;6.90;2.20;;;22.70;1.00;;;;;;6253918;22;20102;-81
2022/09/23 11:09:18;;;;;;;3.85;2.38;;;23.10;1.00;;;;;;6278018;22;20038;-81
2022/09/23 11:12:26;;;;;;;5.03;2.25;;;23.50;1.00;;;;;;6254201;22;20030;-81
2022/09/23 11:15:19;;;;;;;3.38;2.00;;;24.60;1.00;;;;;;6276951;22;20020;-80
2022/09/23 11:18:28;;;;;;;2.80;1.73;;;25.40;1.00;;;;;;6277264;22;20027;-81
2022/09/23 11:21:27;;;;;;;6.80;2.35;;;25.20;1.00;;;;;;6254786;22;20031;-81
2022/09/23 11:24:30;;;;;;;3.63;2.22;;;25.40;1.00;;;;;;6278691;22;20327;-81
2022/09/23 11:27:40;;;;;;;3.15;2.22;;;24.60;1.00;;;;;;6276943;22;20032;-81
2022/09/23 11:30:52;;;;;;;4.78;2.63;;;25.00;1.00;;;;;;6257577;22;20046;-81
2022/09/23 11:34:00;;;;;;;4.00;2.33;;;25.20;1.00;;;;;;6279534;22;20055;-80
2022/09/23 11:37:02;;;;;;;4.28;2.25;;;24.60;1.00;;;;;;6278195;22;20047;-81
2022/09/23 11:40:20;;;;;;;7.07;3.08;;;25.40;1.00;;;;;;6276510;22;20102;-81
2022/09/23 11:43:22;;;;;;;3.13;2.03;;;25.90;1.00;;;;;;6256325;22;20347;-82
2022/09/23 11:46:37;;;;;;;5.60;1.88;;;26.50;1.00;;;;;;6276445;22;20319;-81
2022/09/23 11:49:39;;;;;;;3.75;1.95;;;27.00;1.00;;;;;;6275321;22;20027;-82
2022/09/23 11:52:47;;;;;;;3.83;1.90;;;28.50;1.00;;;;;;6257081;22;20438;-83
2022/09/23 11:55:46;;;;;;;3.53;1.83;;;28.70;1.00;;;;;;6276761;22;20102;-80
2022/09/23 11:59:04;;;;;;;7.07;1.80;;;28.30;1.00;;;;;;6279273;22;20035;-79
2022/09/23 12:01:57;;;;;;;5.53;2.10;;;29.10;1.00;;;;;;6279573;22;20081;-83
2022/09/23 12:05:01;;;;;;;4.00;2.00;;;28.60;1.00;;;;;;6276915;22;20117;-81
2022/09/23 12:08:14;;;;;;;3.97;2.17;;;27.30;1.00;;;;;;6277808;22;20043;-80
2022/09/23 12:11:37;;;;;;;5.38;2.45;;;26.40;1.00;;;;;;6276566;22;20024;-81
2022/09/23 12:14:47;;;;;;;5.32;2.20;;;27.10;1.00;;;;;;6282836;22;20077;-81
2022/09/23 12:17:53;;;;;;;4.43;2.03;;;27.10;1.00;;;;;;6279007;22;20391;-82
2022/09/23 12:20:47;;;;;;;4.00;1.92;;;27.80;1.00;;;;;;6279248;22;20124;-80
2022/09/23 12:23:39;;;;;;;5.18;1.90;;;28.40;1.00;;;;;;6275973;22;20103;-80
2022/09/23 12:26:28;;;;;;;5.90;2.40;;;28.50;1.00;;;;;;6276090;22;20501;-80
2022/09/23 12:29:16;;;;;;;3.72;1.95;;;28.60;1.00;;;;;;6276783;22;20034;-82
2022/09/23 12:32:08;;;;;;;3.45;2.13;;;28.20;1.00;;;;;;6279109;22;20280;-82
2022/09/23 12:34:58;;;;;;;2.70;1.83;;;28.60;1.00;;;;;;6278009;22;20335;-82
2022/09/23 12:37:46;;;;;;;3.58;1.80;;;29.50;1.00;;;;;;6276479;22;20023;-82
2022/09/23 12:40:42;;;;;;;4.88;1.83;;;30.00;1.00;;;;;;6275446;22;20030;-81
2022/09/23 12:43:33;;;;;;;2.90;1.90;;;29.50;1.00;;;;;;6275110;22;20024;-81
2022/09/23 12:46:27;;;;;;;2.97;1.85;;;29.60;1.00;;;;;;6276187;22;20042;-81
2022/09/23 12:49:34;;;;;;;3.92;1.92;;;30.00;1.00;;;;;;6275660;22;20047;-81
2022/09/23 12:52:31;;;;;;;3.35;1.98;;;31.00;1.00;;;;;;6275942;22;20024;-81
2022/09/23 12:55:22;;;;;;;2.83;1.58;;;31.30;1.00;;;;;;6276349;22;20051;-81
2022/09/23 12:58:41;;;;;;;4.80;2.00;;;30.70;1.00;;;;;;6278463;22;20093;-82
2022/09/23 13:01:36;;;;;;;3.70;1.90;;;30.30;1.00;;;;;;6272530;22;20077;-80
2022/09/23 13:08:05;;;;;;;2.38;1.70;;;29.00;1.00;;;;;;6276570;22;20055;-79
2022/09/23 13:10:58;;;;;;;4.82;2.20;;;29.90;1.00;;;;;;6276129;22;20024;-82
2022/09/23 13:13:48;;;;;;;3.22;1.98;;;29.10;1.00;;;;;;6275245;22;20353;-82
2022/09/23 13:16:42;;;;;;;5.47;2.33;;;28.00;1.00;;;;;;6275750;22;20095;-82
2022/09/23 13:19:30;;;;;;;2.45;1.90;;;27.20;1.00;;;;;;6255453;22;20486;-82
2022/09/23 13:23:02;;;;;;;4.07;2.03;;;28.00;1.00;;;;;;6280008;22;20034;-82
2022/09/23 13:26:01;;;;;;;3.10;1.70;;;27.90;1.00;;;;;;6257116;22;20032;-83
2022/09/23 13:28:59;;;;;;;4.68;1.63;;;28.00;1.00;;;;;;6278512;22;20082;-81
2022/09/23 13:31:47;;;;;;;5.60;1.83;;;27.60;1.00;;;;;;6278108;22;20099;-80
2022/09/23 13:34:37;;;;;;;5.05;1.90;;;26.10;1.00;;;;;;6276828;22;20438;-81
2022/09/23 13:37:30;;;;;;;4.00;2.10;;;24.80;1.00;;;;;;6277014;22;20024;-79
2022/09/23 13:40:23;;;;;;;4.20;1.88;;;23.60;1.00;;;;;;6278604;22;20034;-79
2022/09/23 13:43:23;;;;;;;4.00;2.10;;;23.00;1.00;;;;;;6276635;22;20024;-80
2022/09/23 13:46:18;;;;;;;4.28;2.00;;;22.50;1.00;;;;;;6258149;22;20085;-81
2022/09/23 13:49:18;;;;;;;7.70;2.65;;;22.40;1.00;;;;;;6277756;22;20569;-81
2022/09/23 13:52:23;;;;;;;4.80;2.25;;;22.20;1.00;;;;;;6278049;22;20019;-81
2022/09/23 13:55:42;;;;;;;6.72;2.13;;;22.30;1.00;;;;;;6289638;22;20099;-80
2022/09/23 13:58:35;;;;;;;5.00;2.40;;;22.40;1.00;;;;;;6231647;22;20052;-81
2022/09/23 14:01:32;;;;;;;4.78;1.95;;;23.60;1.00;;;;;;6277206;22;20110;-79
2022/09/23 14:04:25;;;;;;;4.50;2.30;;;25.30;1.00;;;;;;6257225;22;20411;-80
2022/09/23 14:07:17;;;;;;;7.43;2.15;;;24.90;1.00;;;;;;6278108;22;20038;-80
2022/09/23 14:10:06;;;;;;;5.28;1.80;;;24.10;1.00;;;;;;6257631;22;20023;-81
2022/09/23 14:12:58;;;;;;;5.30;2.45;;;23.70;1.00;;;;;;6277892;22;20016;-81
2022/09/23 14:15:47;;;;;;;3.70;1.83;;;23.60;1.00;;;;;;6280592;22;20051;-80
2022/09/23 14:18:39;;;;;;;4.53;2.20;;;24.10;1.00;;;;;;6258283;22;20031;-81
2022/09/23 14:21:33;;;;;;;3.92;1.95;;;24.10;1.00;;;;;;6257199;22;20039;-81
2022/09/23 14:24:23;;;;;;;4.35;2.17;;;24.30;1.00;;;;;;6255382;22;20395;-80
2022/09/23 14:27:15;;;;;;;4.15;1.88;;;24.00;1.00;;;;;;6277463;22;20032;-81
2022/09/23 14:30:03;;;;;;;5.00;2.13;;;23.50;1.00;;;;;;6276416;22;20019;-82
2022/09/23 14:32:50;;;;;;;5.57;2.72;;;22.50;1.00;;;;;;6258097;22;20023;-81
2022/09/23 14:35:45;;;;;;;6.63;2.53;;;22.00;1.00;;;;;;6280570;22;20054;-80
2022/09/23 14:38:51;;;;;;;5.30;2.10;;;21.60;1.00;;;;;;6258419;22;20299;-80
2022/09/23 14:41:44;;;;;;;4.15;2.10;;;21.70;1.00;;;;;;6257534;22;20019;-80
2022/09/23 14:44:34;;;;;;;5.13;2.28;;;21.70;1.00;;;;;;6276772;22;20085;-79
2022/09/23 14:47:21;;;;;;;5.38;2.70;;;21.50;1.00;;;;;;6279760;22;20038;-80
2022/09/23 14:53:34;;;;;;;5.40;2.83;;;20.90;1.00;;;;;;6277610;22;20285;-80
2022/09/23 14:56:22;;;;;;;5.45;2.67;;;20.50;1.00;;;;;;6279136;22;20024;-80
2022/09/23 14:59:32;;;;;;;4.80;2.88;;;20.20;1.00;;;;;;6281016;22;20050;-79
2022/09/23 15:02:32;;;;;;;8.48;2.63;;;20.20;1.00;;;;;;6255622;22;20102;-80
2022/09/23 15:05:37;;;;;;;5.93;2.67;;;20.40;1.00;;;;;;6277522;22;20019;-81
2022/09/23 15:08:26;;;;;;;5.90;3.47;;;20.20;1.00;;;;;;6276726;22;20023;-80
2022/09/23 15:11:13;;;;;;;7.60;2.80;;;20.00;1.00;;;;;;6278237;22;20110;-79
2022/09/23 15:14:02;;;;;;;5.60;2.90;;;20.00;1.00;;;;;;6277816;22;20293;-80
2022/09/23 15:17:22;;;;;;;7.55;3.03;;;20.10;1.00;;;;;;6261551;22;20034;-80
2022/09/23 15:20:15;;;;;;;6.97;3.25;;;20.40;1.00;;;;;;6279316;22;20034;-80
2022/09/23 15:23:02;;;;;;;6.90;3.03;;;20.50;1.00;;;;;;6279172;22;20407;-80
2022/09/23 15:25:50;;;;;;;6.50;3.88;;;20.40;1.00;;;;;;6257663;22;20103;-79
2022/09/23 15:28:37;;;;;;;6.07;3.20;;;19.90;1.00;;;;;;6258185;22;20023;-82
2022/09/23 15:31:27;;;;;;;9.60;3.20;;;19.60;1.00;;;;;;6280486;22;20047;-80
2022/09/23 15:34:14;;;;;;;9.10;3.33;;;19.30;1.00;;;;;;6278880;22;20019;-80
2022/09/23 15:37:01;;;;;;;6.88;3.40;;;19.00;1.00;;;;;;6256008;22;20030;-81